sensor_id;sensor_type;location;lat;lon;timestamp;pressure;altitude;pressure_sealevel;temperature;humidity
9187;BME280;7273;48.902;9.410;2023-04-08T00:00:18;98251.84;;;9.07;64.65
9187;BME280;7273;48.902;9.410;2023-04-08T00:02:44;98246.19;;;9.03;64.79
9187;BME280;7273;48.902;9.410;2023-04-08T00:05:10;98248.03;;;8.98;64.82
9187;BME280;7273;48.902;9.410;2023-04-08T00:07:36;98252.06;;;8.95;64.92
9187;BME280;7273;48.902;9.410;2023-04-08T00:10:02;98255.31;;;8.97;64.66
9187;BME280;7273;48.902;9.410;2023-04-08T00:12:28;98252.63;;;8.97;64.95
9187;BME280;7273;48.902;9.410;2023-04-08T00:14:53;98255.31;;;8.97;64.59
9187;BME280;7273;48.902;9.410;2023-04-08T00:17:19;98263.13;;;8.99;64.79
9187;BME280;7273;48.902;9.410;2023-04-08T00:19:45;98257.22;;;8.97;64.89
9187;BME280;7273;48.902;9.410;2023-04-08T00:22:10;98267.75;;;8.98;64.88
9187;BME280;7273;48.902;9.410;2023-04-08T00:24:36;98265.03;;;8.98;65.10
9187;BME280;7273;48.902;9.410;2023-04-08T00:27:02;98272.88;;;9.00;64.88
9187;BME280;7273;48.902;9.410;2023-04-08T00:29:28;98267.75;;;8.98;65.07
9187;BME280;7273;48.902;9.410;2023-04-08T00:31:53;98260.97;;;8.96;65.07
9187;BME280;7273;48.902;9.410;2023-04-08T00:34:19;98260.72;;;8.97;65.07
9187;BME280;7273;48.902;9.410;2023-04-08T00:36:45;98265.31;;;9.02;64.95
9187;BME280;7273;48.902;9.410;2023-04-08T00:39:12;98260.41;;;8.94;64.83
9187;BME280;7273;48.902;9.410;2023-04-08T00:41:38;98261.78;;;8.96;65.11
9187;BME280;7273;48.902;9.410;2023-04-08T00:44:04;98256.66;;;8.95;65.02
9187;BME280;7273;48.902;9.410;2023-04-08T00:46:35;98261.56;;;9.03;64.83
9187;BME280;7273;48.902;9.410;2023-04-08T00:49:01;98261.53;;;8.98;64.77
9187;BME280;7273;48.902;9.410;2023-04-08T00:51:28;98261.78;;;8.96;64.93
9187;BME280;7273;48.902;9.410;2023-04-08T00:53:54;98260.16;;;8.95;64.94
9187;BME280;7273;48.902;9.410;2023-04-08T00:56:21;98262.31;;;8.93;65.18
9187;BME280;7273;48.902;9.410;2023-04-08T00:58:47;98270.94;;;8.90;64.88
9187;BME280;7273;48.902;9.410;2023-04-08T01:01:18;98272.00;;;8.89;65.35
9187;BME280;7273;48.902;9.410;2023-04-08T01:04:01;98263.91;;;8.89;65.33
9187;BME280;7273;48.902;9.410;2023-04-08T01:09:17;98272.25;;;8.88;65.01
9187;BME280;7273;48.902;9.410;2023-04-08T01:11:45;98277.94;;;8.91;65.20
9187;BME280;7273;48.902;9.410;2023-04-08T01:14:18;98267.69;;;8.88;65.09
9187;BME280;7273;48.902;9.410;2023-04-08T01:16:44;98272.81;;;8.90;65.08
9187;BME280;7273;48.902;9.410;2023-04-08T01:19:26;98272.00;;;8.89;65.35
9187;BME280;7273;48.902;9.410;2023-04-08T01:21:59;98270.34;;;8.83;65.51
9187;BME280;7273;48.902;9.410;2023-04-08T01:24:29;98269.25;;;8.84;65.40
9187;BME280;7273;48.902;9.410;2023-04-08T01:26:57;98260.88;;;8.81;65.26
9187;BME280;7273;48.902;9.410;2023-04-08T01:29:24;98268.44;;;8.79;65.06
9187;BME280;7273;48.902;9.410;2023-04-08T01:31:52;98269.47;;;8.78;65.22
9187;BME280;7273;48.902;9.410;2023-04-08T01:34:20;98263.84;;;8.79;65.28
9187;BME280;7273;48.902;9.410;2023-04-08T01:36:46;98261.66;;;8.76;65.32
9187;BME280;7273;48.902;9.410;2023-04-08T01:39:13;98269.22;;;8.79;65.43
9187;BME280;7273;48.902;9.410;2023-04-08T01:41:40;98268.69;;;8.82;65.82
9187;BME280;7273;48.902;9.410;2023-04-08T01:44:06;98265.47;;;8.80;65.55
9187;BME280;7273;48.902;9.410;2023-04-08T01:46:33;98264.66;;;8.80;65.75
9187;BME280;7273;48.902;9.410;2023-04-08T01:49:00;98264.91;;;8.78;65.52
9187;BME280;7273;48.902;9.410;2023-04-08T01:51:27;98264.34;;;8.76;65.58
9187;BME280;7273;48.902;9.410;2023-04-08T01:53:53;98273.22;;;8.72;65.46
9187;BME280;7273;48.902;9.410;2023-04-08T01:56:21;98269.44;;;8.73;65.20
9187;BME280;7273;48.902;9.410;2023-04-08T01:58:52;98271.84;;;8.69;65.36
9187;BME280;7273;48.902;9.410;2023-04-08T02:01:21;98256.50;;;8.70;65.18
9187;BME280;7273;48.902;9.410;2023-04-08T02:03:49;98272.94;;;8.68;65.51
9187;BME280;7273;48.902;9.410;2023-04-08T02:06:16;98268.88;;;8.66;65.33
9187;BME280;7273;48.902;9.410;2023-04-08T02:08:41;98268.28;;;8.59;66.03
9187;BME280;7273;48.902;9.410;2023-04-08T02:11:07;98271.53;;;8.61;65.91
9187;BME280;7273;48.902;9.410;2023-04-08T02:13:32;98274.19;;;8.56;65.90
9187;BME280;7273;48.902;9.410;2023-04-08T02:18:42;98276.81;;;8.46;65.90
9187;BME280;7273;48.902;9.410;2023-04-08T02:21:14;98271.38;;;8.41;65.90
9187;BME280;7273;48.902;9.410;2023-04-08T02:23:41;98274.38;;;8.44;66.19
9187;BME280;7273;48.902;9.410;2023-04-08T02:26:14;98272.72;;;8.43;65.51
9187;BME280;7273;48.902;9.410;2023-04-08T02:28:41;98272.44;;;8.40;66.49
9187;BME280;7273;48.902;9.410;2023-04-08T02:31:11;98277.31;;;8.43;66.23
9187;BME280;7273;48.902;9.410;2023-04-08T02:33:38;98268.94;;;8.39;66.31
9187;BME280;7273;48.902;9.410;2023-04-08T02:36:04;98278.06;;;8.38;66.17
9187;BME280;7273;48.902;9.410;2023-04-08T02:38:30;98272.69;;;8.38;66.50
9187;BME280;7273;48.902;9.410;2023-04-08T02:40:55;98275.91;;;8.35;66.51
9187;BME280;7273;48.902;9.410;2023-04-08T02:43:21;98271.81;;;8.28;66.49
9187;BME280;7273;48.902;9.410;2023-04-08T02:45:51;98270.19;;;8.32;66.66
9187;BME280;7273;48.902;9.410;2023-04-08T02:48:16;98272.09;;;8.31;66.47
9187;BME280;7273;48.902;9.410;2023-04-08T02:50:41;98268.06;;;8.34;66.61
9187;BME280;7273;48.902;9.410;2023-04-08T02:53:08;98274.81;;;8.31;66.48
9187;BME280;7273;48.902;9.410;2023-04-08T02:55:33;98271.53;;;8.29;66.86
9187;BME280;7273;48.902;9.410;2023-04-08T02:57:59;98272.91;;;8.32;66.93
9187;BME280;7273;48.902;9.410;2023-04-08T03:00:24;98272.91;;;8.32;66.81
9187;BME280;7273;48.902;9.410;2023-04-08T03:02:50;98281.81;;;8.32;66.79
9187;BME280;7273;48.902;9.410;2023-04-08T03:05:15;98283.16;;;8.30;67.27
9187;BME280;7273;48.902;9.410;2023-04-08T03:07:41;98283.41;;;8.28;66.48
9187;BME280;7273;48.902;9.410;2023-04-08T03:10:07;98289.31;;;8.30;66.90
9187;BME280;7273;48.902;9.410;2023-04-08T03:12:32;98283.41;;;8.28;66.66
9187;BME280;7273;48.902;9.410;2023-04-08T03:14:58;98285.28;;;8.28;66.76
9187;BME280;7273;48.902;9.410;2023-04-08T03:17:23;98290.59;;;8.23;66.59
9187;BME280;7273;48.902;9.410;2023-04-08T03:19:48;98280.66;;;8.23;67.33
9187;BME280;7273;48.902;9.410;2023-04-08T03:22:14;98283.88;;;8.25;66.86
9187;BME280;7273;48.902;9.410;2023-04-08T03:24:39;98284.63;;;8.20;67.20
9187;BME280;7273;48.902;9.410;2023-04-08T03:27:05;98285.78;;;8.25;66.94
9187;BME280;7273;48.902;9.410;2023-04-08T03:29:30;98280.88;;;8.22;67.13
9187;BME280;7273;48.902;9.410;2023-04-08T03:31:56;98280.88;;;8.22;66.98
9187;BME280;7273;48.902;9.410;2023-04-08T03:34:21;98283.53;;;8.16;66.95
9187;BME280;7273;48.902;9.410;2023-04-08T03:36:47;98277.31;;;8.16;67.36
9187;BME280;7273;48.902;9.410;2023-04-08T03:39:12;98276.50;;;8.15;67.13
9187;BME280;7273;48.902;9.410;2023-04-08T03:41:38;98282.19;;;8.19;67.32
9187;BME280;7273;48.902;9.410;2023-04-08T03:44:03;98274.63;;;8.16;67.30
9187;BME280;7273;48.902;9.410;2023-04-08T03:46:28;98273.50;;;8.12;67.21
9187;BME280;7273;48.902;9.410;2023-04-08T03:48:54;98274.78;;;8.04;66.99
9187;BME280;7273;48.902;9.410;2023-04-08T03:51:19;98278.84;;;8.07;67.61
9187;BME280;7273;48.902;9.410;2023-04-08T03:53:44;98278.84;;;8.07;67.22
9187;BME280;7273;48.902;9.410;2023-04-08T03:56:11;98279.88;;;8.01;67.77
9187;BME280;7273;48.902;9.410;2023-04-08T03:58:36;98284.16;;;8.02;67.27
9187;BME280;7273;48.902;9.410;2023-04-08T04:01:02;98279.31;;;7.99;67.79
9187;BME280;7273;48.902;9.410;2023-04-08T04:03:27;98274.72;;;7.99;67.91
9187;BME280;7273;48.902;9.410;2023-04-08T04:05:53;98283.38;;;8.01;67.82
9187;BME280;7273;48.902;9.410;2023-04-08T04:08:18;98275.50;;;7.95;67.37
9187;BME280;7273;48.902;9.410;2023-04-08T04:10:43;98281.88;;;7.89;68.11
9187;BME280;7273;48.902;9.410;2023-04-08T04:13:09;98285.16;;;7.91;67.99
9187;BME280;7273;48.902;9.410;2023-04-08T04:15:38;98284.03;;;7.87;67.71
9187;BME280;7273;48.902;9.410;2023-04-08T04:18:05;98283.16;;;7.81;67.76
9187;BME280;7273;48.902;9.410;2023-04-08T04:20:30;98283.09;;;7.76;67.49
9187;BME280;7273;48.902;9.410;2023-04-08T04:22:56;98287.72;;;7.81;67.50
9187;BME280;7273;48.902;9.410;2023-04-08T04:25:21;98284.50;;;7.79;67.79
9187;BME280;7273;48.902;9.410;2023-04-08T04:27:47;98292.31;;;7.80;67.75
9187;BME280;7273;48.902;9.410;2023-04-08T04:30:12;98292.47;;;7.69;67.23
9187;BME280;7273;48.902;9.410;2023-04-08T04:32:40;98290.75;;;7.63;67.40
9187;BME280;7273;48.902;9.410;2023-04-08T04:35:08;98297.09;;;7.52;67.52
9187;BME280;7273;48.902;9.410;2023-04-08T04:37:33;98293.91;;;7.55;68.26
9187;BME280;7273;48.902;9.410;2023-04-08T04:39:58;98299.78;;;7.52;68.12
9187;BME280;7273;48.902;9.410;2023-04-08T04:42:24;98299.78;;;7.52;68.02
9187;BME280;7273;48.902;9.410;2023-04-08T04:44:50;98304.41;;;7.56;67.86
9187;BME280;7273;48.902;9.410;2023-04-08T04:47:15;98303.88;;;7.54;68.16
9187;BME280;7273;48.902;9.410;2023-04-08T04:49:40;98315.16;;;7.56;68.52
9187;BME280;7273;48.902;9.410;2023-04-08T04:52:06;98312.78;;;7.60;68.16
9187;BME280;7273;48.902;9.410;2023-04-08T04:54:31;98305.28;;;7.62;67.95
9187;BME280;7273;48.902;9.410;2023-04-08T04:56:57;98303.47;;;7.67;68.64
9187;BME280;7273;48.902;9.410;2023-04-08T04:59:22;98318.25;;;7.65;68.34
9187;BME280;7273;48.902;9.410;2023-04-08T05:01:47;98326.38;;;7.70;68.29
9187;BME280;7273;48.902;9.410;2023-04-08T05:04:13;98325.56;;;7.69;67.98
9187;BME280;7273;48.902;9.410;2023-04-08T05:06:38;98325.00;;;7.67;68.26
9187;BME280;7273;48.902;9.410;2023-04-08T05:09:03;98329.63;;;7.72;68.27
9187;BME280;7273;48.902;9.410;2023-04-08T05:11:29;98332.31;;;7.72;68.22
9187;BME280;7273;48.902;9.410;2023-04-08T05:13:54;98329.06;;;7.70;68.30
9187;BME280;7273;48.902;9.410;2023-04-08T05:16:20;98331.50;;;7.71;68.18
9187;BME280;7273;48.902;9.410;2023-04-08T05:18:45;98331.81;;;7.75;68.17
9187;BME280;7273;48.902;9.410;2023-04-08T05:21:11;98333.16;;;7.72;68.21
9187;BME280;7273;48.902;9.410;2023-04-08T05:23:36;98334.50;;;7.75;68.52
9187;BME280;7273;48.902;9.410;2023-04-08T05:26:01;98329.94;;;7.75;68.67
9187;BME280;7273;48.902;9.410;2023-04-08T05:28:27;98330.53;;;7.77;67.95
9187;BME280;7273;48.902;9.410;2023-04-08T05:30:52;98331.63;;;7.81;68.26
9187;BME280;7273;48.902;9.410;2023-04-08T05:33:19;98328.94;;;7.81;68.17
9187;BME280;7273;48.902;9.410;2023-04-08T05:35:44;98329.50;;;7.83;68.25
9187;BME280;7273;48.902;9.410;2023-04-08T05:38:10;98333.56;;;7.86;68.26
9187;BME280;7273;48.902;9.410;2023-04-08T05:40:35;98337.91;;;7.87;67.67
9187;BME280;7273;48.902;9.410;2023-04-08T05:43:01;98348.41;;;7.88;68.02
9187;BME280;7273;48.902;9.410;2023-04-08T05:45:27;98341.63;;;7.86;67.42
9187;BME280;7273;48.902;9.410;2023-04-08T05:47:53;98344.31;;;7.86;67.75
9187;BME280;7273;48.902;9.410;2023-04-08T05:50:18;98348.16;;;7.90;68.02
9187;BME280;7273;48.902;9.410;2023-04-08T05:52:44;98344.94;;;7.93;68.36
9187;BME280;7273;48.902;9.410;2023-04-08T05:55:11;98355.72;;;7.93;67.75
9187;BME280;7273;48.902;9.410;2023-04-08T05:57:36;98361.09;;;7.93;67.99
9187;BME280;7273;48.902;9.410;2023-04-08T06:00:04;98358.22;;;7.99;67.75
9187;BME280;7273;48.902;9.410;2023-04-08T06:02:30;98357.41;;;7.99;67.73
9187;BME280;7273;48.902;9.410;2023-04-08T06:04:55;98360.72;;;8.06;67.86
9187;BME280;7273;48.902;9.410;2023-04-08T06:07:21;98359.41;;;8.08;67.87
9187;BME280;7273;48.902;9.410;2023-04-08T06:09:46;98360.19;;;8.09;67.88
9187;BME280;7273;48.902;9.410;2023-04-08T06:12:11;98362.09;;;8.08;67.80
9187;BME280;7273;48.902;9.410;2023-04-08T06:14:37;98361.84;;;8.10;67.44
9187;BME280;7273;48.902;9.410;2023-04-08T06:17:03;98365.59;;;8.09;67.99
9187;BME280;7273;48.902;9.410;2023-04-08T06:19:28;98367.28;;;8.15;68.20
9187;BME280;7273;48.902;9.410;2023-04-08T06:21:53;98372.97;;;8.18;67.72
9187;BME280;7273;48.902;9.410;2023-04-08T06:24:26;98379.25;;;8.24;67.57
9187;BME280;7273;48.902;9.410;2023-04-08T06:26:52;98379.25;;;8.24;67.34
9187;BME280;7273;48.902;9.410;2023-04-08T06:29:19;98373.94;;;8.29;67.83
9187;BME280;7273;48.902;9.410;2023-04-08T06:31:45;98378.81;;;8.32;67.45
9187;BME280;7273;48.902;9.410;2023-04-08T06:34:10;98379.94;;;8.36;67.57
9187;BME280;7273;48.902;9.410;2023-04-08T06:36:36;98384.25;;;8.37;67.85
9187;BME280;7273;48.902;9.410;2023-04-08T06:39:02;98381.91;;;8.46;67.89
9187;BME280;7273;48.902;9.410;2023-04-08T06:41:28;98383.00;;;8.50;67.94
9187;BME280;7273;48.902;9.410;2023-04-08T06:43:53;98387.41;;;8.56;67.52
9187;BME280;7273;48.902;9.410;2023-04-08T06:46:18;98393.91;;;8.60;67.58
9187;BME280;7273;48.902;9.410;2023-04-08T06:48:44;98394.16;;;8.58;67.32
9187;BME280;7273;48.902;9.410;2023-04-08T06:51:10;98400.94;;;8.61;67.28
9187;BME280;7273;48.902;9.410;2023-04-08T06:53:35;98393.09;;;8.59;67.66
9187;BME280;7273;48.902;9.410;2023-04-08T06:56:01;98389.31;;;8.60;67.63
9187;BME280;7273;48.902;9.410;2023-04-08T06:58:26;98392.28;;;8.59;67.34
9187;BME280;7273;48.902;9.410;2023-04-08T07:00:55;98394.97;;;8.59;67.58
9187;BME280;7273;48.902;9.410;2023-04-08T07:03:21;98391.75;;;8.62;67.43
9187;BME280;7273;48.902;9.410;2023-04-08T07:05:47;98393.91;;;8.60;67.67
9187;BME280;7273;48.902;9.410;2023-04-08T07:08:12;98396.91;;;8.63;67.73
9187;BME280;7273;48.902;9.410;2023-04-08T07:10:38;98404.69;;;8.60;67.36
9187;BME280;7273;48.902;9.410;2023-04-08T07:13:04;98402.75;;;8.55;67.76
9187;BME280;7273;48.902;9.410;2023-04-08T07:15:29;98410.38;;;8.63;67.38
9187;BME280;7273;48.902;9.410;2023-04-08T07:17:55;98406.91;;;8.68;67.33
9187;BME280;7273;48.902;9.410;2023-04-08T07:20:24;98405.56;;;8.65;67.32
9187;BME280;7273;48.902;9.410;2023-04-08T07:22:50;98405.28;;;8.67;67.91
9187;BME280;7273;48.902;9.410;2023-04-08T07:25:16;98402.59;;;8.67;67.39
9187;BME280;7273;48.902;9.410;2023-04-08T07:27:41;98407.41;;;8.65;67.91
9187;BME280;7273;48.902;9.410;2023-04-08T07:30:07;98403.88;;;8.59;67.65
9187;BME280;7273;48.902;9.410;2023-04-08T07:32:33;98402.81;;;8.60;68.22
9187;BME280;7273;48.902;9.410;2023-04-08T07:34:59;98413.94;;;8.69;67.63
9187;BME280;7273;48.902;9.410;2023-04-08T07:37:28;98413.72;;;8.75;67.53
9187;BME280;7273;48.902;9.410;2023-04-08T07:39:53;98421.34;;;8.83;67.54
9187;BME280;7273;48.902;9.410;2023-04-08T07:42:19;98424.09;;;8.88;67.53
9187;BME280;7273;48.902;9.410;2023-04-08T07:44:44;98425.75;;;8.94;67.45
9187;BME280;7273;48.902;9.410;2023-04-08T07:47:11;98430.13;;;9.00;67.29
9187;BME280;7273;48.902;9.410;2023-04-08T07:49:37;98435.06;;;9.13;67.43
9187;BME280;7273;48.902;9.410;2023-04-08T07:52:03;98432.63;;;9.12;67.44
9187;BME280;7273;48.902;9.410;2023-04-08T07:54:32;98431.41;;;9.24;66.91
9187;BME280;7273;48.902;9.410;2023-04-08T07:56:59;98429.34;;;9.41;66.97
9187;BME280;7273;48.902;9.410;2023-04-08T07:59:25;98430.97;;;9.37;66.77
9187;BME280;7273;48.902;9.410;2023-04-08T08:01:51;98444.06;;;9.61;66.59
9187;BME280;7273;48.902;9.410;2023-04-08T08:04:16;98443.09;;;9.77;66.35
9187;BME280;7273;48.902;9.410;2023-04-08T08:06:42;98435.03;;;9.87;66.26
9187;BME280;7273;48.902;9.410;2023-04-08T08:09:07;98436.19;;;10.06;66.04
9187;BME280;7273;48.902;9.410;2023-04-08T08:11:33;98424.28;;;10.02;65.58
9187;BME280;7273;48.902;9.410;2023-04-08T08:13:58;98436.59;;;10.29;65.28
9187;BME280;7273;48.902;9.410;2023-04-08T08:16:27;98430.72;;;10.47;65.37
9187;BME280;7273;48.902;9.410;2023-04-08T08:18:53;98430.44;;;10.49;65.31
9187;BME280;7273;48.902;9.410;2023-04-08T08:21:18;98431.50;;;10.43;65.58
9187;BME280;7273;48.902;9.410;2023-04-08T08:23:43;98428.78;;;10.38;65.48
9187;BME280;7273;48.902;9.410;2023-04-08T08:26:09;98434.47;;;10.46;65.32
9187;BME280;7273;48.902;9.410;2023-04-08T08:28:35;98434.19;;;10.43;65.17
9187;BME280;7273;48.902;9.410;2023-04-08T08:31:00;98429.09;;;10.51;65.21
9187;BME280;7273;48.902;9.410;2023-04-08T08:33:27;98432.84;;;10.40;65.27
9187;BME280;7273;48.902;9.410;2023-04-08T08:35:53;98435.84;;;10.44;64.94
9187;BME280;7273;48.902;9.410;2023-04-08T08:38:19;98440.69;;;10.42;65.35
9187;BME280;7273;48.902;9.410;2023-04-08T08:40:45;98449.91;;;10.51;65.19
9187;BME280;7273;48.902;9.410;2023-04-08T08:43:10;98447.75;;;10.58;65.23
9187;BME280;7273;48.902;9.410;2023-04-08T08:45:40;98446.97;;;10.67;64.95
9187;BME280;7273;48.902;9.410;2023-04-08T08:48:06;98449.19;;;10.91;64.71
9187;BME280;7273;48.902;9.410;2023-04-08T08:50:35;98449.19;;;10.91;64.92
9187;BME280;7273;48.902;9.410;2023-04-08T08:53:01;98452.72;;;10.96;64.65
9187;BME280;7273;48.902;9.410;2023-04-08T08:55:29;98455.41;;;10.96;64.95
9187;BME280;7273;48.902;9.410;2023-04-08T08:57:56;98452.69;;;10.91;64.84
9187;BME280;7273;48.902;9.410;2023-04-08T09:00:35;98456.75;;;10.94;65.03
9187;BME280;7273;48.902;9.410;2023-04-08T09:03:20;98458.69;;;11.03;65.06
9187;BME280;7273;48.902;9.410;2023-04-08T09:05:54;98456.78;;;11.24;65.06
9187;BME280;7273;48.902;9.410;2023-04-08T09:08:33;98454.34;;;11.37;64.92
9187;BME280;7273;48.902;9.410;2023-04-08T09:11:16;98458.09;;;11.56;64.80
9187;BME280;7273;48.902;9.410;2023-04-08T09:13:43;98463.00;;;11.44;64.45
9187;BME280;7273;48.902;9.410;2023-04-08T09:16:10;98471.66;;;11.56;64.47
9187;BME280;7273;48.902;9.410;2023-04-08T09:18:36;98467.84;;;11.57;64.08
9187;BME280;7273;48.902;9.410;2023-04-08T09:21:04;98467.06;;;11.62;64.06
9187;BME280;7273;48.902;9.410;2023-04-08T09:23:51;98470.03;;;11.70;64.50
9187;BME280;7273;48.902;9.410;2023-04-08T09:26:18;98475.44;;;11.70;63.96
9187;BME280;7273;48.902;9.410;2023-04-08T09:29:06;98461.38;;;11.73;64.24
9187;BME280;7273;48.902;9.410;2023-04-08T09:31:36;98473.28;;;11.72;63.58
9187;BME280;7273;48.902;9.410;2023-04-08T09:34:15;98465.72;;;11.64;63.84
9187;BME280;7273;48.902;9.410;2023-04-08T09:36:42;98465.97;;;11.68;63.87
9187;BME280;7273;48.902;9.410;2023-04-08T09:39:11;98464.81;;;11.99;63.64
9187;BME280;7273;48.902;9.410;2023-04-08T09:41:37;98458.53;;;12.13;63.54
9187;BME280;7273;48.902;9.410;2023-04-08T09:44:05;98456.13;;;12.12;63.13
9187;BME280;7273;48.902;9.410;2023-04-08T09:46:32;98461.56;;;12.07;62.54
9187;BME280;7273;48.902;9.410;2023-04-08T09:49:12;98458.25;;;12.15;63.30
9187;BME280;7273;48.902;9.410;2023-04-08T09:52:10;98453.97;;;12.09;63.21
9187;BME280;7273;48.902;9.410;2023-04-08T09:55:02;98464.00;;;12.03;63.17
9187;BME280;7273;48.902;9.410;2023-04-08T10:00:12;98455.69;;;11.75;62.88
9187;BME280;7273;48.902;9.410;2023-04-08T10:02:59;98456.19;;;11.82;62.69
9187;BME280;7273;48.902;9.410;2023-04-08T10:05:27;98450.50;;;11.83;62.66
9187;BME280;7273;48.902;9.410;2023-04-08T10:07:55;98453.75;;;11.85;62.53
9187;BME280;7273;48.902;9.410;2023-04-08T10:10:21;98450.19;;;11.90;62.05
9187;BME280;7273;48.902;9.410;2023-04-08T10:12:47;98448.06;;;11.87;61.81
9187;BME280;7273;48.902;9.410;2023-04-08T10:17:52;98451.03;;;11.85;61.39
9187;BME280;7273;48.902;9.410;2023-04-08T10:23:02;98452.13;;;11.89;61.61
9187;BME280;7273;48.902;9.410;2023-04-08T10:25:35;98454.28;;;11.92;61.66
9187;BME280;7273;48.902;9.410;2023-04-08T10:33:17;98457.25;;;11.91;61.14
9187;BME280;7273;48.902;9.410;2023-04-08T10:35:46;98457.25;;;11.96;60.99
9187;BME280;7273;48.902;9.410;2023-04-08T10:38:15;98461.03;;;11.90;61.24
9187;BME280;7273;48.902;9.410;2023-04-08T10:40:42;98467.84;;;11.92;61.11
9187;BME280;7273;48.902;9.410;2023-04-08T10:43:09;98463.72;;;12.00;60.88
9187;BME280;7273;48.902;9.410;2023-04-08T10:45:35;98471.59;;;12.01;60.77
9187;BME280;7273;48.902;9.410;2023-04-08T10:48:17;98480.28;;;11.98;60.79
9187;BME280;7273;48.902;9.410;2023-04-08T10:51:03;98476.22;;;12.01;60.41
9187;BME280;7273;48.902;9.410;2023-04-08T10:53:31;98476.78;;;11.98;60.81
9187;BME280;7273;48.902;9.410;2023-04-08T10:58:29;98472.97;;;11.89;60.66
9187;BME280;7273;48.902;9.410;2023-04-08T11:00:54;98479.78;;;11.86;60.70
9187;BME280;7273;48.902;9.410;2023-04-08T11:03:19;98481.13;;;11.84;60.43
9187;BME280;7273;48.902;9.410;2023-04-08T11:05:45;98483.84;;;11.74;60.46
9187;BME280;7273;48.902;9.410;2023-04-08T11:08:11;98480.59;;;11.72;60.71
9187;BME280;7273;48.902;9.410;2023-04-08T11:10:37;98486.03;;;11.62;60.61
9187;BME280;7273;48.902;9.410;2023-04-08T11:13:05;98484.66;;;11.54;60.56
9187;BME280;7273;48.902;9.410;2023-04-08T11:15:32;98482.75;;;11.55;60.44
9187;BME280;7273;48.902;9.410;2023-04-08T11:17:58;98481.66;;;11.46;60.50
9187;BME280;7273;48.902;9.410;2023-04-08T11:20:24;98483.88;;;11.39;60.52
9187;BME280;7273;48.902;9.410;2023-04-08T11:22:50;98480.88;;;11.35;60.90
9187;BME280;7273;48.902;9.410;2023-04-08T11:25:16;98477.06;;;11.31;60.34
9187;BME280;7273;48.902;9.410;2023-04-08T11:27:42;98473.56;;;11.26;60.33
9187;BME280;7273;48.902;9.410;2023-04-08T11:30:08;98480.31;;;11.23;60.39
9187;BME280;7273;48.902;9.410;2023-04-08T11:32:35;98477.63;;;11.18;60.46
9187;BME280;7273;48.902;9.410;2023-04-08T11:35:03;98476.25;;;11.11;60.45
9187;BME280;7273;48.902;9.410;2023-04-08T11:37:39;98482.50;;;11.16;60.22
9187;BME280;7273;48.902;9.410;2023-04-08T11:40:11;98481.69;;;11.11;60.40
9187;BME280;7273;48.902;9.410;2023-04-08T11:42:38;98481.41;;;11.12;60.42
9187;BME280;7273;48.902;9.410;2023-04-08T11:45:11;98485.47;;;11.10;60.12
9187;BME280;7273;48.902;9.410;2023-04-08T11:47:37;98477.34;;;11.10;60.30
9187;BME280;7273;48.902;9.410;2023-04-08T11:50:03;98477.09;;;11.06;60.25
9187;BME280;7273;48.902;9.410;2023-04-08T11:52:44;98480.56;;;11.02;60.21
9187;BME280;7273;48.902;9.410;2023-04-08T11:55:11;98477.84;;;10.97;60.59
9187;BME280;7273;48.902;9.410;2023-04-08T11:57:37;98484.38;;;10.96;60.62
9187;BME280;7273;48.902;9.410;2023-04-08T12:00:05;98479.22;;;10.99;60.31
9187;BME280;7273;48.902;9.410;2023-04-08T12:02:30;98480.84;;;10.95;60.56
9187;BME280;7273;48.902;9.410;2023-04-08T12:04:56;98478.97;;;11.01;60.34
9187;BME280;7273;48.902;9.410;2023-04-08T12:07:21;98485.19;;;11.06;60.35
9187;BME280;7273;48.902;9.410;2023-04-08T12:09:46;98482.75;;;11.05;60.48
9187;BME280;7273;48.902;9.410;2023-04-08T12:12:12;98482.22;;;11.08;60.32
9187;BME280;7273;48.902;9.410;2023-04-08T12:14:37;98480.88;;;11.15;60.20
9187;BME280;7273;48.902;9.410;2023-04-08T12:17:03;98482.47;;;11.21;60.11
9187;BME280;7273;48.902;9.410;2023-04-08T12:19:28;98486.28;;;11.30;59.98
9187;BME280;7273;48.902;9.410;2023-04-08T12:21:53;98478.44;;;11.34;60.15
9187;BME280;7273;48.902;9.410;2023-04-08T12:24:19;98478.44;;;11.39;60.09
9187;BME280;7273;48.902;9.410;2023-04-08T12:26:45;98479.78;;;11.46;60.00
9187;BME280;7273;48.902;9.410;2023-04-08T12:29:11;98483.59;;;11.55;59.90
9187;BME280;7273;48.902;9.410;2023-04-08T12:31:36;98483.31;;;11.57;60.09
9187;BME280;7273;48.902;9.410;2023-04-08T12:34:01;98482.78;;;11.65;60.06
9187;BME280;7273;48.902;9.410;2023-04-08T12:36:27;98476.28;;;11.66;60.02
9187;BME280;7273;48.902;9.410;2023-04-08T12:38:52;98482.78;;;11.65;59.79
9187;BME280;7273;48.902;9.410;2023-04-08T12:41:18;98485.78;;;11.63;59.74
9187;BME280;7273;48.902;9.410;2023-04-08T12:43:43;98482.50;;;11.61;59.81
9187;BME280;7273;48.902;9.410;2023-04-08T12:46:09;98483.81;;;11.59;59.82
9187;BME280;7273;48.902;9.410;2023-04-08T12:48:34;98477.88;;;11.62;59.83
9187;BME280;7273;48.902;9.410;2023-04-08T12:50:59;98482.22;;;11.53;59.86
9187;BME280;7273;48.902;9.410;2023-04-08T12:53:25;98481.94;;;11.54;60.23
9187;BME280;7273;48.902;9.410;2023-04-08T12:55:50;98482.50;;;11.56;60.20
9187;BME280;7273;48.902;9.410;2023-04-08T12:58:19;98487.63;;;11.58;59.76
9187;BME280;7273;48.902;9.410;2023-04-08T13:00:45;98481.41;;;11.57;60.10
9187;BME280;7273;48.902;9.410;2023-04-08T13:03:11;98481.41;;;11.57;59.72
9187;BME280;7273;48.902;9.410;2023-04-08T13:05:37;98488.47;;;11.53;59.83
9187;BME280;7273;48.902;9.410;2023-04-08T13:08:02;98482.22;;;11.58;59.90
9187;BME280;7273;48.902;9.410;2023-04-08T13:10:28;98483.03;;;11.58;59.70
9187;BME280;7273;48.902;9.410;2023-04-08T13:12:53;98477.63;;;11.58;60.02
9187;BME280;7273;48.902;9.410;2023-04-08T13:15:18;98475.19;;;11.62;59.63
9187;BME280;7273;48.902;9.410;2023-04-08T13:17:44;98479.81;;;11.66;59.55
9187;BME280;7273;48.902;9.410;2023-04-08T13:20:10;98472.50;;;11.67;59.52
9187;BME280;7273;48.902;9.410;2023-04-08T13:22:36;98474.09;;;11.73;59.58
9187;BME280;7273;48.902;9.410;2023-04-08T13:25:01;98470.84;;;11.71;59.66
9187;BME280;7273;48.902;9.410;2023-04-08T13:27:27;98464.09;;;11.68;59.66
9187;BME280;7273;48.902;9.410;2023-04-08T13:29:52;98458.13;;;11.71;59.61
9187;BME280;7273;48.902;9.410;2023-04-08T13:32:17;98458.66;;;11.73;59.22
9187;BME280;7273;48.902;9.410;2023-04-08T13:34:43;98459.19;;;11.75;59.17
9187;BME280;7273;48.902;9.410;2023-04-08T13:37:08;98470.84;;;11.81;59.12
9187;BME280;7273;48.902;9.410;2023-04-08T13:39:34;98471.66;;;11.81;59.19
9187;BME280;7273;48.902;9.410;2023-04-08T13:41:59;98466.50;;;11.80;59.10
9187;BME280;7273;48.902;9.410;2023-04-08T13:44:25;98466.25;;;11.81;59.14
9187;BME280;7273;48.902;9.410;2023-04-08T13:46:51;98470.56;;;11.82;59.10
9187;BME280;7273;48.902;9.410;2023-04-08T13:49:17;98473.53;;;11.81;59.00